Time;durP1;ratioP1;P1;durP2;ratioP2;P2;SDS_P1;SDS_P2;PMS_P1;PMS_P2;Temp;Humidity;BMP_temperature;BMP_pressure;BME280_temperature;BME280_humidity;BME280_pressure;Samples;Min_cycle;Max_cycle;Signal;HPM_P1;HPM_P2
2022/07/06 00:01:55;;;;;;;0.35;0.35;;;;;;;;;;4974097;28;20035;-69
2022/07/06 00:04:21;;;;;;;0.25;0.22;;;;;;;;;;4973250;28;20046;-69
2022/07/06 00:06:49;;;;;;;0.43;0.30;;;;;;;;;;4975330;28;20050;-70
2022/07/06 00:09:14;;;;;;;1.88;0.40;;;;;;;;;;4968004;28;20069;-69
2022/07/06 00:11:42;;;;;;;0.20;0.20;;;;;;;;;;4975385;28;20046;-69
2022/07/06 00:14:10;;;;;;;0.10;0.10;;;;;;;;;;4973940;28;20093;-69
2022/07/06 00:16:36;;;;;;;0.03;0.03;;;;;;;;;;4975065;28;20058;-69
2022/07/06 00:19:01;;;;;;;0.30;0.10;;;;;;;;;;4975746;28;20459;-70
2022/07/06 00:21:26;;;;;;;0.13;0.13;;;;;;;;;;4973799;28;20310;-69
2022/07/06 00:23:52;;;;;;;0.20;0.10;;;;;;;;;;4974456;28;20102;-69
2022/07/06 00:26:20;;;;;;;0.20;0.20;;;;;;;;;;4974519;28;20089;-69
2022/07/06 00:28:48;;;;;;;0.55;0.22;;;;;;;;;;4975025;28;20030;-70
2022/07/06 00:31:15;;;;;;;0.38;0.38;;;;;;;;;;4974969;28;20034;-69
2022/07/06 00:33:43;;;;;;;0.20;0.20;;;;;;;;;;4975279;28;20115;-69
2022/07/06 00:36:11;;;;;;;0.28;0.28;;;;;;;;;;4973132;28;20413;-69
2022/07/06 00:38:36;;;;;;;0.10;0.10;;;;;;;;;;4974189;28;20411;-69
2022/07/06 00:41:02;;;;;;;0.20;0.20;;;;;;;;;;4975266;28;20034;-69
2022/07/06 00:43:27;;;;;;;0.10;0.10;;;;;;;;;;4975308;28;20030;-69
2022/07/06 00:45:55;;;;;;;0.13;0.13;;;;;;;;;;4974161;28;20049;-69
2022/07/06 00:48:24;;;;;;;0.65;0.40;;;;;;;;;;4975368;28;20019;-69
2022/07/06 00:50:52;;;;;;;0.20;0.20;;;;;;;;;;4972918;28;20077;-69
2022/07/06 00:53:20;;;;;;;0.20;0.20;;;;;;;;;;4958144;28;20019;-69
2022/07/06 00:55:45;;;;;;;0.20;0.20;;;;;;;;;;4974127;28;20105;-70
2022/07/06 00:58:13;;;;;;;1.50;0.80;;;;;;;;;;4975162;28;20077;-69
2022/07/06 01:00:44;;;;;;;0.98;0.30;;;;;;;;;;4972180;28;20110;-69
2022/07/06 01:03:12;;;;;;;0.28;0.20;;;;;;;;;;4973348;28;20042;-69
2022/07/06 01:05:37;;;;;;;0.10;0.10;;;;;;;;;;4973601;28;20044;-69
2022/07/06 01:08:03;;;;;;;0.08;0.08;;;;;;;;;;4973690;28;20118;-69
2022/07/06 01:10:28;;;;;;;0.17;0.17;;;;;;;;;;4972483;28;20065;-70
2022/07/06 01:12:54;;;;;;;0.57;0.20;;;;;;;;;;4974659;28;20027;-69
2022/07/06 01:15:25;;;;;;;0.10;0.10;;;;;;;;;;4972804;28;20110;-69
2022/07/06 01:17:51;;;;;;;0.30;0.30;;;;;;;;;;4971868;28;20401;-69
2022/07/06 01:20:21;;;;;;;0.20;0.20;;;;;;;;;;4955163;29;20065;-69
2022/07/06 01:22:47;;;;;;;0.10;0.10;;;;;;;;;;4956652;28;20480;-70
2022/07/06 01:25:13;;;;;;;0.35;0.20;;;;;;;;;;4974031;28;20097;-69
2022/07/06 01:27:40;;;;;;;0.65;0.30;;;;;;;;;;4975345;28;20022;-69
2022/07/06 01:30:10;;;;;;;0.70;0.35;;;;;;;;;;4974704;28;20429;-69
2022/07/06 01:32:39;;;;;;;0.20;0.20;;;;;;;;;;4958175;28;20376;-69
2022/07/06 01:35:06;;;;;;;0.32;0.20;;;;;;;;;;4956577;28;20027;-69
2022/07/06 01:37:34;;;;;;;0.10;0.10;;;;;;;;;;4971053;28;20516;-69
2022/07/06 01:40:01;;;;;;;0.13;0.13;;;;;;;;;;4965522;28;20473;-69
2022/07/06 01:42:29;;;;;;;0.80;0.80;;;;;;;;;;4971720;28;20026;-69
2022/07/06 01:44:55;;;;;;;0.47;0.45;;;;;;;;;;4972739;28;20035;-69
2022/07/06 01:47:20;;;;;;;0.00;0.00;;;;;;;;;;4971693;28;20027;-69
2022/07/06 01:49:46;;;;;;;0.10;0.10;;;;;;;;;;4972211;28;20096;-69
2022/07/06 01:52:11;;;;;;;0.45;0.45;;;;;;;;;;4940530;28;20115;-69
2022/07/06 01:54:37;;;;;;;0.17;0.17;;;;;;;;;;4975288;28;20019;-69
2022/07/06 01:57:04;;;;;;;0.45;0.45;;;;;;;;;;4973204;28;20081;-69
2022/07/06 01:59:30;;;;;;;0.30;0.30;;;;;;;;;;4974178;28;20026;-69
2022/07/06 02:01:55;;;;;;;0.90;0.82;;;;;;;;;;4970155;28;20042;-69
2022/07/06 02:04:21;;;;;;;0.20;0.20;;;;;;;;;;4977749;28;20034;-69
2022/07/06 02:06:46;;;;;;;0.10;0.10;;;;;;;;;;4975300;28;20150;-69
2022/07/06 02:09:11;;;;;;;0.30;0.20;;;;;;;;;;4975867;28;20105;-69
2022/07/06 02:11:37;;;;;;;1.10;0.30;;;;;;;;;;4976742;28;20034;-68
2022/07/06 02:14:02;;;;;;;0.63;0.30;;;;;;;;;;4975358;28;20023;-68
2022/07/06 02:16:28;;;;;;;0.17;0.17;;;;;;;;;;4979860;28;20486;-70
2022/07/06 02:18:53;;;;;;;0.30;0.20;;;;;;;;;;4975729;28;20026;-69
2022/07/06 02:21:18;;;;;;;0.00;0.00;;;;;;;;;;4972533;28;20405;-70
2022/07/06 02:23:44;;;;;;;0.05;0.05;;;;;;;;;;4977847;28;20089;-69
2022/07/06 02:26:09;;;;;;;0.40;0.20;;;;;;;;;;4977194;28;20062;-70
2022/07/06 02:28:34;;;;;;;0.80;0.55;;;;;;;;;;4976407;28;20035;-69
2022/07/06 02:31:04;;;;;;;0.68;0.50;;;;;;;;;;4976659;28;20031;-69
2022/07/06 02:33:30;;;;;;;0.10;0.10;;;;;;;;;;4976779;28;20027;-68
2022/07/06 02:35:55;;;;;;;0.10;0.10;;;;;;;;;;4977807;28;20057;-69
2022/07/06 02:38:21;;;;;;;0.43;0.20;;;;;;;;;;4976848;28;20031;-68
2022/07/06 02:40:46;;;;;;;0.28;0.15;;;;;;;;;;4975795;28;20042;-68
2022/07/06 02:43:12;;;;;;;0.50;0.50;;;;;;;;;;4977025;28;20348;-68
2022/07/06 02:45:37;;;;;;;0.45;0.10;;;;;;;;;;4977040;28;21482;-68
2022/07/06 02:48:05;;;;;;;1.13;0.38;;;;;;;;;;4974404;28;20089;-68
2022/07/06 02:50:30;;;;;;;0.10;0.10;;;;;;;;;;4976872;28;20034;-68
2022/07/06 02:52:55;;;;;;;0.10;0.10;;;;;;;;;;4976803;28;20085;-68
2022/07/06 02:55:23;;;;;;;0.65;0.40;;;;;;;;;;4977670;28;20023;-68
2022/07/06 02:57:51;;;;;;;0.10;0.10;;;;;;;;;;4974959;28;20018;-68
2022/07/06 03:00:16;;;;;;;0.10;0.10;;;;;;;;;;4975768;28;20582;-68
2022/07/06 03:02:42;;;;;;;0.20;0.20;;;;;;;;;;4975523;28;20083;-69
2022/07/06 03:05:10;;;;;;;0.40;0.40;;;;;;;;;;4975720;28;20030;-69
2022/07/06 03:07:38;;;;;;;0.05;0.05;;;;;;;;;;4977252;28;20030;-69
2022/07/06 03:10:03;;;;;;;0.10;0.10;;;;;;;;;;4975810;28;20106;-69
2022/07/06 03:12:31;;;;;;;0.63;0.60;;;;;;;;;;4977436;28;20106;-69
2022/07/06 03:14:59;;;;;;;0.10;0.10;;;;;;;;;;4976349;28;20026;-69
2022/07/06 03:17:25;;;;;;;0.10;0.10;;;;;;;;;;4977092;28;20027;-69
2022/07/06 03:19:50;;;;;;;0.20;0.20;;;;;;;;;;4977249;28;20172;-69
2022/07/06 03:22:16;;;;;;;0.20;0.10;;;;;;;;;;4973721;28;20041;-69
2022/07/06 03:24:41;;;;;;;2.35;0.73;;;;;;;;;;4976171;28;20041;-69
2022/07/06 03:27:06;;;;;;;0.47;0.47;;;;;;;;;;4976288;28;20043;-69
2022/07/06 03:29:32;;;;;;;0.63;0.57;;;;;;;;;;4976289;28;20042;-68
2022/07/06 03:31:59;;;;;;;1.20;0.88;;;;;;;;;;4975455;28;20035;-69
2022/07/06 03:34:25;;;;;;;0.20;0.20;;;;;;;;;;4975556;28;20030;-69
2022/07/06 03:36:52;;;;;;;0.65;0.43;;;;;;;;;;4974433;28;20415;-70
2022/07/06 03:39:18;;;;;;;0.65;0.65;;;;;;;;;;4975869;28;20038;-69
2022/07/06 03:41:45;;;;;;;0.63;0.63;;;;;;;;;;4975261;28;20141;-69
2022/07/06 03:44:11;;;;;;;0.30;0.30;;;;;;;;;;4975687;28;20023;-69
2022/07/06 03:46:36;;;;;;;0.20;0.20;;;;;;;;;;4974360;28;20126;-69
2022/07/06 03:49:04;;;;;;;0.52;0.35;;;;;;;;;;4973821;28;20106;-68
2022/07/06 03:51:31;;;;;;;0.00;0.00;;;;;;;;;;4971866;28;20038;-69
2022/07/06 03:53:57;;;;;;;0.30;0.30;;;;;;;;;;4966201;28;20056;-69
2022/07/06 03:56:27;;;;;;;0.05;0.05;;;;;;;;;;4970587;28;20555;-69
2022/07/06 03:58:54;;;;;;;0.20;0.20;;;;;;;;;;4964808;28;20030;-69
2022/07/06 04:01:19;;;;;;;0.47;0.40;;;;;;;;;;4974573;28;20029;-69
2022/07/06 04:03:47;;;;;;;3.60;1.70;;;;;;;;;;4977876;28;20341;-69
2022/07/06 04:06:14;;;;;;;3.63;1.08;;;;;;;;;;4958954;28;20034;-69
2022/07/06 04:08:40;;;;;;;1.65;0.50;;;;;;;;;;4974390;28;20086;-69
2022/07/06 04:11:05;;;;;;;0.80;0.80;;;;;;;;;;4974095;28;20034;-69
2022/07/06 04:13:30;;;;;;;0.57;0.32;;;;;;;;;;4975222;28;20031;-69
2022/07/06 04:15:56;;;;;;;0.20;0.20;;;;;;;;;;4973200;28;20161;-69
2022/07/06 04:18:24;;;;;;;0.22;0.22;;;;;;;;;;4974978;28;20050;-69
2022/07/06 04:20:49;;;;;;;0.38;0.38;;;;;;;;;;4975216;28;20034;-70
2022/07/06 04:23:14;;;;;;;0.15;0.15;;;;;;;;;;4974043;28;20034;-70
2022/07/06 04:25:42;;;;;;;0.00;0.00;;;;;;;;;;4975110;28;20388;-69
2022/07/06 04:28:08;;;;;;;0.75;0.13;;;;;;;;;;4973949;28;20106;-71
2022/07/06 04:30:34;;;;;;;0.73;0.13;;;;;;;;;;4975017;28;20161;-70
2022/07/06 04:33:01;;;;;;;0.70;0.60;;;;;;;;;;4971618;28;20031;-70
2022/07/06 04:35:29;;;;;;;0.45;0.35;;;;;;;;;;4971361;28;20060;-69
2022/07/06 04:37:55;;;;;;;0.93;0.55;;;;;;;;;;4958715;28;20408;-70
2022/07/06 04:40:21;;;;;;;0.20;0.20;;;;;;;;;;4974474;28;20420;-70
2022/07/06 04:42:46;;;;;;;0.15;0.15;;;;;;;;;;4975051;28;20039;-70
2022/07/06 04:45:12;;;;;;;0.65;0.65;;;;;;;;;;4974817;28;20348;-70
2022/07/06 04:47:39;;;;;;;0.20;0.20;;;;;;;;;;4974232;28;20031;-70
2022/07/06 04:50:06;;;;;;;0.47;0.47;;;;;;;;;;4973229;28;20113;-70
2022/07/06 04:52:31;;;;;;;0.17;0.17;;;;;;;;;;4974940;28;20055;-70
2022/07/06 04:54:58;;;;;;;1.00;0.60;;;;;;;;;;4974037;28;20137;-69
2022/07/06 04:57:25;;;;;;;0.60;0.60;;;;;;;;;;4976063;28;20077;-71
2022/07/06 04:59:51;;;;;;;0.47;0.43;;;;;;;;;;4976015;28;20433;-69
2022/07/06 05:02:16;;;;;;;0.13;0.13;;;;;;;;;;4985095;28;20098;-70
2022/07/06 05:04:42;;;;;;;0.00;0.00;;;;;;;;;;4975758;28;20026;-69
2022/07/06 05:07:07;;;;;;;0.60;0.60;;;;;;;;;;4975021;28;20038;-69
2022/07/06 05:09:32;;;;;;;0.38;0.38;;;;;;;;;;4974124;28;20027;-69
2022/07/06 05:11:58;;;;;;;0.08;0.08;;;;;;;;;;4972973;28;20054;-70
2022/07/06 05:14:23;;;;;;;0.20;0.20;;;;;;;;;;4976707;28;20073;-70
2022/07/06 05:16:48;;;;;;;1.80;0.68;;;;;;;;;;4988880;28;20023;-70
2022/07/06 05:19:14;;;;;;;0.20;0.20;;;;;;;;;;4975734;28;20023;-70
2022/07/06 05:21:39;;;;;;;3.97;0.57;;;;;;;;;;4972796;28;20040;-70
2022/07/06 05:24:04;;;;;;;0.57;0.50;;;;;;;;;;4974704;28;20471;-71
2022/07/06 05:26:30;;;;;;;3.45;0.85;;;;;;;;;;4973714;28;20097;-70
2022/07/06 05:28:57;;;;;;;0.75;0.50;;;;;;;;;;4956198;28;20038;-71
2022/07/06 05:31:26;;;;;;;6.68;1.88;;;;;;;;;;4966210;28;20109;-71
2022/07/06 05:33:51;;;;;;;0.28;0.28;;;;;;;;;;4973880;28;20448;-70
2022/07/06 05:36:16;;;;;;;0.80;0.80;;;;;;;;;;4972813;28;20113;-70
2022/07/06 05:38:44;;;;;;;1.02;0.25;;;;;;;;;;4978197;28;20368;-70
2022/07/06 05:41:10;;;;;;;1.08;0.68;;;;;;;;;;4978183;28;20030;-70
2022/07/06 05:43:36;;;;;;;0.57;0.57;;;;;;;;;;4977598;28;20023;-69
2022/07/06 05:46:04;;;;;;;0.68;0.68;;;;;;;;;;4978170;28;20034;-69
2022/07/06 05:51:13;;;;;;;0.40;0.40;;;;;;;;;;4978100;28;20040;-70
2022/07/06 05:53:39;;;;;;;0.40;0.22;;;;;;;;;;4976918;28;20027;-70
2022/07/06 05:56:04;;;;;;;0.45;0.40;;;;;;;;;;4975491;28;20061;-70
2022/07/06 05:58:32;;;;;;;1.83;0.70;;;;;;;;;;4977570;28;20082;-70
2022/07/06 06:00:57;;;;;;;0.30;0.30;;;;;;;;;;4975807;28;20456;-70
2022/07/06 06:03:23;;;;;;;0.20;0.20;;;;;;;;;;4978083;28;20038;-71
2022/07/06 06:05:49;;;;;;;5.32;1.10;;;;;;;;;;4977273;28;20046;-70
2022/07/06 06:08:14;;;;;;;0.28;0.28;;;;;;;;;;4976533;28;20065;-70
2022/07/06 06:10:42;;;;;;;0.10;0.10;;;;;;;;;;4977362;28;20045;-70
2022/07/06 06:13:07;;;;;;;0.40;0.40;;;;;;;;;;4977428;28;20092;-70
2022/07/06 06:15:33;;;;;;;1.98;0.77;;;;;;;;;;4978437;28;20034;-71
2022/07/06 06:17:58;;;;;;;3.38;1.02;;;;;;;;;;4976659;28;20027;-70
2022/07/06 06:20:27;;;;;;;0.47;0.47;;;;;;;;;;4977312;28;20102;-71
2022/07/06 06:22:53;;;;;;;0.00;0.00;;;;;;;;;;4969317;28;20583;-71
2022/07/06 06:25:29;;;;;;;6.57;0.63;;;;;;;;;;4976190;28;20113;-71
2022/07/06 06:27:57;;;;;;;0.15;0.15;;;;;;;;;;4978165;28;20022;-71
2022/07/06 06:30:22;;;;;;;0.47;0.30;;;;;;;;;;4974123;28;20105;-70
2022/07/06 06:32:48;;;;;;;3.75;0.28;;;;;;;;;;4989486;28;20563;-71
2022/07/06 06:35:13;;;;;;;0.25;0.10;;;;;;;;;;4975747;28;20092;-70
2022/07/06 06:37:41;;;;;;;0.85;0.75;;;;;;;;;;4957542;29;20031;-71
2022/07/06 06:40:12;;;;;;;0.08;0.08;;;;;;;;;;4966682;28;20559;-71
2022/07/06 06:42:40;;;;;;;1.10;0.45;;;;;;;;;;4977773;28;20038;-71
2022/07/06 06:45:08;;;;;;;0.20;0.20;;;;;;;;;;4965615;28;20109;-71
2022/07/06 06:47:33;;;;;;;0.10;0.10;;;;;;;;;;4958212;28;20106;-71
2022/07/06 06:49:59;;;;;;;0.95;0.95;;;;;;;;;;4956368;28;20445;-72
2022/07/06 06:52:24;;;;;;;7.53;1.48;;;;;;;;;;4967764;28;20449;-71
2022/07/06 06:54:49;;;;;;;1.17;0.75;;;;;;;;;;4976508;28;20403;-70
2022/07/06 06:57:15;;;;;;;2.42;0.30;;;;;;;;;;4975787;28;20022;-69
2022/07/06 06:59:40;;;;;;;0.10;0.10;;;;;;;;;;4977523;28;20030;-69
2022/07/06 07:02:06;;;;;;;0.20;0.20;;;;;;;;;;4977365;28;20062;-70
2022/07/06 07:04:31;;;;;;;0.20;0.20;;;;;;;;;;4973187;28;20356;-68
2022/07/06 07:06:57;;;;;;;0.10;0.10;;;;;;;;;;4973909;28;20030;-68
2022/07/06 07:09:22;;;;;;;0.82;0.20;;;;;;;;;;4974477;28;20069;-69
2022/07/06 07:11:50;;;;;;;0.47;0.40;;;;;;;;;;4977045;28;20045;-69
2022/07/06 07:14:15;;;;;;;0.30;0.30;;;;;;;;;;4976291;28;20030;-69
2022/07/06 07:16:40;;;;;;;0.38;0.20;;;;;;;;;;4976826;28;20023;-70
2022/07/06 07:19:08;;;;;;;0.28;0.28;;;;;;;;;;4976450;28;20031;-70
2022/07/06 07:21:33;;;;;;;0.17;0.17;;;;;;;;;;4976364;28;20034;-70
2022/07/06 07:23:59;;;;;;;0.10;0.10;;;;;;;;;;4976882;28;20042;-69
2022/07/06 07:26:27;;;;;;;0.25;0.25;;;;;;;;;;4976975;28;20038;-69
2022/07/06 07:28:52;;;;;;;0.38;0.32;;;;;;;;;;4976143;28;20027;-69
2022/07/06 07:31:19;;;;;;;0.20;0.20;;;;;;;;;;4975994;28;20110;-71
2022/07/06 07:33:48;;;;;;;0.00;0.00;;;;;;;;;;4976805;28;20027;-70
2022/07/06 07:36:15;;;;;;;0.25;0.20;;;;;;;;;;4977159;28;20031;-71
2022/07/06 07:38:40;;;;;;;0.63;0.13;;;;;;;;;;4976887;28;20019;-70
2022/07/06 07:41:11;;;;;;;0.47;0.30;;;;;;;;;;4976327;28;20333;-70
2022/07/06 07:43:36;;;;;;;0.80;0.10;;;;;;;;;;4978975;28;20491;-70
2022/07/06 07:46:02;;;;;;;0.30;0.30;;;;;;;;;;4975159;28;20115;-70
2022/07/06 07:48:29;;;;;;;1.85;0.80;;;;;;;;;;4976998;28;20429;-70
2022/07/06 07:50:55;;;;;;;0.10;0.10;;;;;;;;;;4976579;28;20464;-71
2022/07/06 07:53:20;;;;;;;0.73;0.43;;;;;;;;;;4975104;28;20045;-71
2022/07/06 07:55:50;;;;;;;0.00;0.00;;;;;;;;;;4977017;28;20361;-70
2022/07/06 07:58:15;;;;;;;1.88;0.43;;;;;;;;;;4959599;28;20034;-70
2022/07/06 08:00:41;;;;;;;0.63;0.63;;;;;;;;;;4975142;28;20356;-71
2022/07/06 08:03:09;;;;;;;5.32;0.45;;;;;;;;;;4974286;28;20038;-70
2022/07/06 08:05:34;;;;;;;0.40;0.40;;;;;;;;;;4977293;28;20054;-69
2022/07/06 08:08:01;;;;;;;2.65;0.20;;;;;;;;;;4974539;28;20034;-70
2022/07/06 08:10:27;;;;;;;0.73;0.65;;;;;;;;;;4976311;28;20034;-69
2022/07/06 08:12:54;;;;;;;13.05;1.80;;;;;;;;;;4974517;28;20037;-70
2022/07/06 08:15:23;;;;;;;0.20;0.20;;;;;;;;;;4974477;28;20069;-70
2022/07/06 08:17:48;;;;;;;0.20;0.20;;;;;;;;;;4975437;28;20015;-71
2022/07/06 08:20:14;;;;;;;1.05;0.93;;;;;;;;;;4971252;28;20038;-72
2022/07/06 08:22:41;;;;;;;0.65;0.63;;;;;;;;;;4959259;28;20508;-70
2022/07/06 08:25:07;;;;;;;0.50;0.47;;;;;;;;;;4975840;28;20368;-71
2022/07/06 08:27:42;;;;;;;0.17;0.17;;;;;;;;;;4962495;28;20500;-70
2022/07/06 08:30:17;;;;;;;0.00;0.00;;;;;;;;;;4964776;28;20042;-70
2022/07/06 08:33:01;;;;;;;0.20;0.20;;;;;;;;;;4940431;29;20437;-70
2022/07/06 08:35:29;;;;;;;0.10;0.10;;;;;;;;;;4969068;28;20042;-70
2022/07/06 08:37:54;;;;;;;0.55;0.17;;;;;;;;;;4967740;28;20453;-70
2022/07/06 08:40:34;;;;;;;0.30;0.30;;;;;;;;;;4968498;28;20038;-71
2022/07/06 08:43:02;;;;;;;0.47;0.25;;;;;;;;;;4967917;28;20444;-71
2022/07/06 08:45:27;;;;;;;1.50;0.93;;;;;;;;;;4974242;28;20057;-71
2022/07/06 08:47:57;;;;;;;1.15;0.20;;;;;;;;;;4971277;28;20030;-70
2022/07/06 08:50:27;;;;;;;1.77;0.47;;;;;;;;;;4963284;28;20027;-71
2022/07/06 08:52:53;;;;;;;0.80;0.17;;;;;;;;;;4972640;28;20097;-71
2022/07/06 08:55:21;;;;;;;0.10;0.10;;;;;;;;;;4974421;28;20038;-70
2022/07/06 08:57:49;;;;;;;3.30;0.40;;;;;;;;;;4973307;28;20286;-70
2022/07/06 09:00:17;;;;;;;0.65;0.55;;;;;;;;;;4975142;28;20516;-70
2022/07/06 09:02:42;;;;;;;0.17;0.08;;;;;;;;;;4973512;28;20109;-71
2022/07/06 09:05:09;;;;;;;0.73;0.28;;;;;;;;;;4974402;28;20039;-71
2022/07/06 09:07:34;;;;;;;0.10;0.10;;;;;;;;;;4973175;28;20026;-71
2022/07/06 09:10:01;;;;;;;0.30;0.30;;;;;;;;;;4967497;28;20110;-70
2022/07/06 09:12:27;;;;;;;0.70;0.52;;;;;;;;;;4976578;28;20079;-72
2022/07/06 09:14:59;;;;;;;0.57;0.10;;;;;;;;;;4968651;28;20093;-71
2022/07/06 09:17:28;;;;;;;3.80;0.63;;;;;;;;;;4962363;28;20035;-71
2022/07/06 09:19:54;;;;;;;0.10;0.10;;;;;;;;;;4976904;28;20049;-70
2022/07/06 09:22:32;;;;;;;2.38;0.15;;;;;;;;;;4978032;28;20035;-71
2022/07/06 09:25:03;;;;;;;0.13;0.13;;;;;;;;;;4978305;28;20045;-70
2022/07/06 09:27:29;;;;;;;0.17;0.17;;;;;;;;;;4979558;28;20122;-72
2022/07/06 09:29:56;;;;;;;23.05;1.75;;;;;;;;;;4977622;28;20173;-71
2022/07/06 09:32:22;;;;;;;0.28;0.28;;;;;;;;;;4953618;29;20066;-70
2022/07/06 09:34:47;;;;;;;0.90;0.82;;;;;;;;;;4963132;28;20066;-70
2022/07/06 09:37:17;;;;;;;2.28;0.88;;;;;;;;;;4978531;28;20047;-70
2022/07/06 09:39:44;;;;;;;8.60;0.95;;;;;;;;;;4977805;28;20045;-70
2022/07/06 09:42:10;;;;;;;3.53;0.32;;;;;;;;;;4976351;28;20386;-70
2022/07/06 09:44:38;;;;;;;0.10;0.10;;;;;;;;;;4975787;28;20070;-70
2022/07/06 09:47:09;;;;;;;0.30;0.30;;;;;;;;;;4978360;28;20027;-70
2022/07/06 09:49:35;;;;;;;0.35;0.32;;;;;;;;;;4978133;28;20034;-70
2022/07/06 09:52:03;;;;;;;0.10;0.10;;;;;;;;;;4977742;28;20499;-69
2022/07/06 09:54:29;;;;;;;1.98;0.38;;;;;;;;;;4978771;28;20117;-69
2022/07/06 09:56:56;;;;;;;0.00;0.00;;;;;;;;;;4961501;28;20177;-70
2022/07/06 09:59:23;;;;;;;1.65;0.20;;;;;;;;;;4978574;28;20031;-69
2022/07/06 10:01:59;;;;;;;0.28;0.10;;;;;;;;;;4973612;28;20154;-69
2022/07/06 10:04:26;;;;;;;0.10;0.10;;;;;;;;;;4978321;28;20019;-69
2022/07/06 10:06:52;;;;;;;0.13;0.08;;;;;;;;;;4976808;28;20070;-69
2022/07/06 10:09:23;;;;;;;1.45;0.17;;;;;;;;;;4978331;28;20054;-68
2022/07/06 10:11:53;;;;;;;0.13;0.13;;;;;;;;;;4977018;28;20111;-68
2022/07/06 10:14:38;;;;;;;0.22;0.22;;;;;;;;;;4975103;28;20062;-70
2022/07/06 10:17:06;;;;;;;0.80;0.57;;;;;;;;;;4991460;28;20519;-72
2022/07/06 10:19:32;;;;;;;0.20;0.20;;;;;;;;;;4977274;28;20034;-71
2022/07/06 10:22:02;;;;;;;0.30;0.13;;;;;;;;;;4976938;28;20034;-71
2022/07/06 10:24:28;;;;;;;0.10;0.10;;;;;;;;;;4973450;28;20031;-72
2022/07/06 10:26:54;;;;;;;0.30;0.25;;;;;;;;;;4974392;28;20031;-71
2022/07/06 10:29:20;;;;;;;0.30;0.30;;;;;;;;;;4958486;28;20445;-72
2022/07/06 10:31:49;;;;;;;0.20;0.20;;;;;;;;;;4970795;28;20041;-69
2022/07/06 10:34:18;;;;;;;0.00;0.00;;;;;;;;;;4977453;28;20082;-69
2022/07/06 10:36:50;;;;;;;0.55;0.20;;;;;;;;;;4973356;28;20089;-72
2022/07/06 10:42:49;;;;;;;0.57;0.22;;;;;;;;;;4974063;28;20041;-70
2022/07/06 10:45:20;;;;;;;2.55;0.45;;;;;;;;;;4976128;28;20061;-70
2022/07/06 10:47:45;;;;;;;0.10;0.10;;;;;;;;;;4976730;28;20066;-72
2022/07/06 10:50:12;;;;;;;0.20;0.20;;;;;;;;;;4976266;28;20050;-72
2022/07/06 10:52:53;;;;;;;5.18;0.20;;;;;;;;;;4975814;28;20117;-71
2022/07/06 10:55:32;;;;;;;0.57;0.20;;;;;;;;;;4974347;28;20031;-71
2022/07/06 10:57:58;;;;;;;0.47;0.20;;;;;;;;;;4975110;28;20027;-71
2022/07/06 11:00:26;;;;;;;1.75;0.30;;;;;;;;;;4976790;28;20014;-72
2022/07/06 11:02:52;;;;;;;0.10;0.10;;;;;;;;;;4973488;28;20551;-70
2022/07/06 11:05:39;;;;;;;2.08;0.85;;;;;;;;;;4972797;28;20117;-73
2022/07/06 11:08:05;;;;;;;0.00;0.00;;;;;;;;;;4975245;28;20043;-72
2022/07/06 11:10:48;;;;;;;0.00;0.00;;;;;;;;;;4974638;28;20022;-71
2022/07/06 11:13:28;;;;;;;0.10;0.10;;;;;;;;;;4975672;28;20069;-72
2022/07/06 11:16:02;;;;;;;0.80;0.38;;;;;;;;;;4974789;28;20030;-73
2022/07/06 11:18:27;;;;;;;0.00;0.00;;;;;;;;;;4977506;28;20032;-72
2022/07/06 11:21:20;;;;;;;0.10;0.10;;;;;;;;;;4977130;28;20023;-74
2022/07/06 11:23:47;;;;;;;0.32;0.17;;;;;;;;;;4976338;28;20103;-73
2022/07/06 11:26:16;;;;;;;0.00;0.00;;;;;;;;;;4972322;28;20034;-73
2022/07/06 11:28:45;;;;;;;0.22;0.22;;;;;;;;;;4957049;28;20034;-73
2022/07/06 11:31:10;;;;;;;0.05;0.05;;;;;;;;;;4974766;28;20107;-72
2022/07/06 11:33:36;;;;;;;0.30;0.30;;;;;;;;;;4976259;28;20501;-73
2022/07/06 11:36:18;;;;;;;0.38;0.30;;;;;;;;;;4975346;28;20030;-73
2022/07/06 11:38:44;;;;;;;0.10;0.10;;;;;;;;;;4974614;28;20187;-72
2022/07/06 11:41:12;;;;;;;0.80;0.20;;;;;;;;;;4973599;28;20027;-73
2022/07/06 11:43:39;;;;;;;0.35;0.25;;;;;;;;;;4976294;28;20023;-73
2022/07/06 11:46:04;;;;;;;0.30;0.30;;;;;;;;;;4973698;28;20022;-73
2022/07/06 11:48:29;;;;;;;0.25;0.20;;;;;;;;;;4976358;28;20031;-73
2022/07/06 11:51:01;;;;;;;0.10;0.10;;;;;;;;;;4975154;28;20022;-73
2022/07/06 11:53:27;;;;;;;0.17;0.10;;;;;;;;;;4975154;28;20328;-73
2022/07/06 11:55:53;;;;;;;0.32;0.32;;;;;;;;;;4975023;28;20022;-73
2022/07/06 11:58:23;;;;;;;0.10;0.10;;;;;;;;;;4971832;28;20487;-73
2022/07/06 12:01:11;;;;;;;2.83;0.28;;;;;;;;;;4967247;28;20050;-73
2022/07/06 12:03:39;;;;;;;4.90;0.20;;;;;;;;;;4987467;28;20035;-73
2022/07/06 12:06:05;;;;;;;0.55;0.10;;;;;;;;;;4975215;28;20336;-74
2022/07/06 12:08:33;;;;;;;0.20;0.20;;;;;;;;;;4975459;28;20024;-73
2022/07/06 12:10:59;;;;;;;0.25;0.25;;;;;;;;;;4962927;28;20439;-73
2022/07/06 12:13:24;;;;;;;0.52;0.20;;;;;;;;;;4974573;28;20057;-74
2022/07/06 12:15:52;;;;;;;0.10;0.10;;;;;;;;;;4976038;28;20023;-74
2022/07/06 12:18:17;;;;;;;0.10;0.10;;;;;;;;;;4973193;28;20031;-73
2022/07/06 12:20:43;;;;;;;0.10;0.10;;;;;;;;;;4958855;28;20084;-73
2022/07/06 12:23:08;;;;;;;1.02;0.63;;;;;;;;;;4974901;28;20030;-73
2022/07/06 12:25:37;;;;;;;0.55;0.43;;;;;;;;;;4973047;28;20027;-74
2022/07/06 12:28:03;;;;;;;0.00;0.00;;;;;;;;;;4974286;28;20026;-74
2022/07/06 12:30:29;;;;;;;0.10;0.10;;;;;;;;;;4975528;28;20045;-74
2022/07/06 12:33:15;;;;;;;0.65;0.17;;;;;;;;;;4971275;28;20038;-74
2022/07/06 12:35:43;;;;;;;0.13;0.13;;;;;;;;;;4970029;28;20033;-74
2022/07/06 12:38:11;;;;;;;0.20;0.10;;;;;;;;;;4975839;28;20018;-73
2022/07/06 12:40:36;;;;;;;0.00;0.00;;;;;;;;;;4975799;28;20368;-74
2022/07/06 12:43:05;;;;;;;0.00;0.00;;;;;;;;;;4958590;28;20031;-74
2022/07/06 12:45:33;;;;;;;0.13;0.13;;;;;;;;;;4974345;28;20099;-74
2022/07/06 12:48:08;;;;;;;0.45;0.40;;;;;;;;;;4970620;28;20027;-75
2022/07/06 12:50:36;;;;;;;0.10;0.10;;;;;;;;;;4971664;28;20102;-75
2022/07/06 12:53:04;;;;;;;0.00;0.00;;;;;;;;;;4974031;28;20077;-73
2022/07/06 12:55:34;;;;;;;0.00;0.00;;;;;;;;;;4969030;28;20424;-73
2022/07/06 12:57:59;;;;;;;0.08;0.08;;;;;;;;;;4975278;28;20381;-73
2022/07/06 13:00:25;;;;;;;1.27;0.17;;;;;;;;;;4974452;28;20118;-73
2022/07/06 13:02:54;;;;;;;0.10;0.10;;;;;;;;;;4956673;28;20026;-73
2022/07/06 13:05:27;;;;;;;0.30;0.30;;;;;;;;;;4956259;28;20085;-73
2022/07/06 13:07:54;;;;;;;0.90;0.55;;;;;;;;;;4975398;28;20031;-80
2022/07/06 13:10:19;;;;;;;0.00;0.00;;;;;;;;;;4978263;28;20125;-86
2022/07/06 13:12:44;;;;;;;0.00;0.00;;;;;;;;;;4957245;28;20440;-83
2022/07/06 13:15:13;;;;;;;3.40;0.43;;;;;;;;;;4973694;28;20072;-85
2022/07/06 13:17:44;;;;;;;0.22;0.22;;;;;;;;;;4974452;28;20118;-81
2022/07/06 13:20:13;;;;;;;0.30;0.20;;;;;;;;;;4975206;28;20151;-87
2022/07/06 13:22:39;;;;;;;0.05;0.05;;;;;;;;;;4958771;28;20031;-85
2022/07/06 13:25:07;;;;;;;0.20;0.20;;;;;;;;;;4978225;28;20054;-86
2022/07/06 13:27:33;;;;;;;0.20;0.10;;;;;;;;;;4979221;28;20092;-82
2022/07/06 13:29:58;;;;;;;0.35;0.25;;;;;;;;;;4975197;28;20023;-86
2022/07/06 13:32:24;;;;;;;0.00;0.00;;;;;;;;;;4976291;28;20421;-85
2022/07/06 13:34:49;;;;;;;1.15;0.45;;;;;;;;;;4975244;28;20454;-85
2022/07/06 13:37:14;;;;;;;0.10;0.10;;;;;;;;;;4963455;28;20027;-85
2022/07/06 13:39:42;;;;;;;0.20;0.20;;;;;;;;;;4967881;28;20027;-85
2022/07/06 13:42:12;;;;;;;0.35;0.32;;;;;;;;;;4985884;28;20030;-86
2022/07/06 13:44:38;;;;;;;0.30;0.30;;;;;;;;;;4968179;28;20074;-86
2022/07/06 13:47:03;;;;;;;1.15;0.50;;;;;;;;;;4976181;28;20126;-86
2022/07/06 13:49:29;;;;;;;0.10;0.10;;;;;;;;;;4973521;28;20031;-86
2022/07/06 13:51:54;;;;;;;1.15;0.32;;;;;;;;;;4974463;28;20023;-85
2022/07/06 13:54:20;;;;;;;0.00;0.00;;;;;;;;;;4975672;28;20356;-84
2022/07/06 13:56:45;;;;;;;1.13;0.43;;;;;;;;;;4976627;28;20110;-85
2022/07/06 13:59:13;;;;;;;0.20;0.20;;;;;;;;;;4977132;28;20419;-86
2022/07/06 14:01:38;;;;;;;0.10;0.10;;;;;;;;;;4978602;28;20437;-83
2022/07/06 14:04:04;;;;;;;0.75;0.40;;;;;;;;;;4978636;28;20037;-85
2022/07/06 14:06:31;;;;;;;0.40;0.38;;;;;;;;;;4977623;28;20031;-84
2022/07/06 14:08:57;;;;;;;0.35;0.35;;;;;;;;;;4978370;28;20034;-86
2022/07/06 14:11:22;;;;;;;0.30;0.30;;;;;;;;;;4975114;28;20022;-85
2022/07/06 14:13:48;;;;;;;0.40;0.20;;;;;;;;;;4982344;28;20022;-84
2022/07/06 14:16:13;;;;;;;1.63;0.75;;;;;;;;;;4979232;28;20018;-83
2022/07/06 14:18:42;;;;;;;0.30;0.30;;;;;;;;;;4965061;28;20117;-86
2022/07/06 14:21:10;;;;;;;0.10;0.10;;;;;;;;;;4979095;28;20109;-86
2022/07/06 14:23:38;;;;;;;0.22;0.22;;;;;;;;;;4978834;28;20038;-84
2022/07/06 14:26:04;;;;;;;2.67;0.13;;;;;;;;;;4978270;28;20040;-84
2022/07/06 14:28:29;;;;;;;1.10;0.20;;;;;;;;;;4962618;28;20118;-86
2022/07/06 14:30:57;;;;;;;0.73;0.60;;;;;;;;;;4967509;28;20045;-87
2022/07/06 14:33:22;;;;;;;0.20;0.20;;;;;;;;;;4981965;28;20055;-85
2022/07/06 14:35:52;;;;;;;0.22;0.20;;;;;;;;;;4980185;28;20027;-89
2022/07/06 14:38:18;;;;;;;0.30;0.30;;;;;;;;;;4978535;28;20026;-89
2022/07/06 14:40:47;;;;;;;0.70;0.57;;;;;;;;;;4979278;28;20027;-85
2022/07/06 14:43:13;;;;;;;0.45;0.28;;;;;;;;;;4965940;28;20023;-83
2022/07/06 14:45:43;;;;;;;0.32;0.32;;;;;;;;;;4976240;28;20037;-86
2022/07/06 14:48:10;;;;;;;0.00;0.00;;;;;;;;;;4977541;28;20027;-87
2022/07/06 14:50:36;;;;;;;0.25;0.25;;;;;;;;;;4977484;28;20018;-83